createdAt,value
2023-01-30T00:00:02.352Z,1010.5
2023-01-30T00:15:02.790Z,1010.5
2023-01-30T00:30:03.547Z,1010.2
2023-01-30T00:45:02.798Z,1010.0
2023-01-30T01:00:03.094Z,1009.4
2023-01-30T01:15:02.552Z,1009.0
2023-01-30T01:30:02.564Z,1008.9
2023-01-30T01:45:03.410Z,1008.6
2023-01-30T02:00:02.851Z,1008.3
2023-01-30T02:15:02.319Z,1008.1
2023-01-30T02:30:02.852Z,1007.9
2023-01-30T02:45:02.155Z,1007.8
2023-01-30T03:00:02.813Z,1007.2
2023-01-30T03:15:03.057Z,1007.2
2023-01-30T03:30:02.472Z,1006.7
2023-01-30T03:45:02.900Z,1006.5
2023-01-30T04:00:02.324Z,1006.3
2023-01-30T04:15:02.861Z,1006.4
2023-01-30T04:30:02.203Z,1006.5
2023-01-30T04:45:02.866Z,1006.4
2023-01-30T05:00:02.067Z,1006.2
2023-01-30T05:15:02.482Z,1006.4
2023-01-30T05:30:02.943Z,1006.4
2023-01-30T05:45:02.352Z,1006.4
2023-01-30T06:00:02.877Z,1006.3
2023-01-30T06:15:02.241Z,1006.4
2023-01-30T06:30:02.934Z,1006.6
2023-01-30T06:45:02.111Z,1006.8
2023-01-30T07:00:02.533Z,1006.8
2023-01-30T07:15:03.022Z,1006.9
2023-01-30T07:30:02.415Z,1007.0
2023-01-30T07:45:02.912Z,1007.1
2023-01-30T08:00:02.308Z,1007.2
2023-01-30T08:15:02.919Z,1007.2
2023-01-30T08:30:02.184Z,1007.2
2023-01-30T08:45:02.647Z,1007.4
2023-01-30T09:00:03.062Z,1007.4
2023-01-30T09:15:02.475Z,1007.5
2023-01-30T09:30:02.948Z,1007.5
2023-01-30T09:45:02.367Z,1007.5
2023-01-30T10:00:02.956Z,1007.4
2023-01-30T10:15:02.232Z,1007.5
2023-01-30T10:30:02.870Z,1007.6
2023-01-30T10:45:02.121Z,1007.6
2023-01-30T11:00:02.557Z,1007.4
2023-01-30T11:15:02.993Z,1007.1
2023-01-30T11:30:02.412Z,1007.2
2023-01-30T11:45:16.546Z,1007.3
2023-01-30T12:00:02.305Z,1007.3
2023-01-30T12:15:02.952Z,1008.0
2023-01-30T12:30:02.166Z,1008.0
2023-01-30T12:45:02.594Z,1007.9
2023-01-30T13:00:03.069Z,1008.0
2023-01-30T13:15:02.477Z,1008.2
2023-01-30T13:30:03.043Z,1008.4
2023-01-30T13:45:02.373Z,1008.6
2023-01-30T14:00:03.007Z,1009.0
2023-01-30T14:15:02.254Z,1009.3
2023-01-30T14:30:02.685Z,1009.6
2023-01-30T14:45:03.158Z,1009.8
2023-01-30T15:00:15.667Z,1010.2
2023-01-30T15:15:03.036Z,1010.5
2023-01-30T15:30:02.429Z,1010.9
2023-01-30T15:45:03.029Z,1011.1
2023-01-30T16:00:02.314Z,1011.3
2023-01-30T16:15:17.493Z,1012.0
2023-01-30T16:30:03.200Z,1012.2
2023-01-30T16:45:02.635Z,1012.4
2023-01-30T17:00:03.064Z,1012.8
2023-01-30T17:15:02.482Z,1013.1
2023-01-30T17:30:03.058Z,1013.4
2023-01-30T17:45:02.395Z,1013.5
2023-01-30T18:00:03.032Z,1013.7
2023-01-30T18:15:02.284Z,1013.7
2023-01-30T18:30:02.729Z,1013.9
2023-01-30T18:45:03.154Z,1014.1
2023-01-30T19:00:02.587Z,1014.3
2023-01-30T19:15:03.090Z,1014.6
2023-01-30T19:30:02.477Z,1014.7
2023-01-30T19:45:03.109Z,1014.9
2023-01-30T20:00:02.344Z,1015.1
2023-01-30T20:15:02.801Z,1015.3
2023-01-30T20:30:02.215Z,1015.6
2023-01-30T20:45:02.638Z,1016.0
2023-01-30T21:00:03.240Z,1016.1
2023-01-30T21:15:02.533Z,1016.2
2023-01-30T21:30:03.125Z,1016.2
2023-01-30T21:45:02.397Z,1016.6
2023-01-30T22:00:02.861Z,1016.7
2023-01-30T22:15:02.288Z,1016.7
2023-01-30T22:30:02.707Z,1016.7
2023-01-30T22:45:03.172Z,1016.6
2023-01-30T23:00:02.585Z,1016.6
2023-01-30T23:30:02.450Z,1016.7
2023-01-30T23:45:02.891Z,1016.8
